Time;durP1;ratioP1;P1;durP2;ratioP2;P2;SDS_P1;SDS_P2;PMS_P1;PMS_P2;Temp;Humidity;BMP_temperature;BMP_pressure;BME280_temperature;BME280_humidity;BME280_pressure;Samples;Min_cycle;Max_cycle;Signal;HPM_P1;HPM_P2
2022/02/13 00:02:09;;;;;;;15.73;8.70;;;1.10;67.00;;;;;;4980837;28;20579;-67
2022/02/13 00:04:36;;;;;;;13.70;8.40;;;1.10;67.20;;;;;;4976315;28;20125;-68
2022/02/13 00:07:02;;;;;;;12.40;7.88;;;1.00;68.00;;;;;;4978359;28;20079;-67
2022/02/13 00:09:30;;;;;;;13.07;8.38;;;1.00;67.20;;;;;;4976600;28;20034;-67
2022/02/13 00:11:56;;;;;;;17.42;9.48;;;1.00;67.10;;;;;;4978759;28;20472;-67
2022/02/13 00:14:21;;;;;;;17.77;10.27;;;1.00;67.20;;;;;;4978572;28;20038;-66
2022/02/13 00:16:47;;;;;;;15.30;9.05;;;0.90;67.30;;;;;;4976960;28;20035;-67
2022/02/13 00:19:13;;;;;;;12.60;8.20;;;0.90;67.40;;;;;;4978244;28;20046;-68
2022/02/13 00:21:38;;;;;;;12.90;8.02;;;0.90;67.70;;;;;;4979040;28;20719;-68
2022/02/13 00:24:04;;;;;;;11.70;7.78;;;0.80;67.90;;;;;;4977489;28;20170;-68
2022/02/13 00:26:30;;;;;;;13.43;7.82;;;0.80;68.00;;;;;;4976623;28;20039;-66
2022/02/13 00:28:56;;;;;;;13.98;8.00;;;0.80;68.00;;;;;;4979113;28;20080;-68
2022/02/13 00:31:21;;;;;;;11.80;6.90;;;0.80;67.90;;;;;;4989290;28;20057;-67
2022/02/13 00:33:47;;;;;;;13.88;7.10;;;0.80;68.00;;;;;;4977979;28;20043;-67
2022/02/13 00:36:13;;;;;;;10.70;7.15;;;0.80;68.00;;;;;;4978113;28;20450;-68
2022/02/13 00:38:38;;;;;;;11.23;7.40;;;0.80;68.10;;;;;;4975622;28;20065;-68
2022/02/13 00:41:04;;;;;;;11.93;7.40;;;0.70;68.00;;;;;;4980850;28;20059;-68
2022/02/13 00:43:30;;;;;;;14.73;7.25;;;0.70;68.90;;;;;;4977298;28;20039;-67
2022/02/13 00:45:55;;;;;;;12.43;7.18;;;0.80;68.00;;;;;;4979218;28;20088;-68
2022/02/13 00:48:21;;;;;;;7.80;6.00;;;0.80;68.10;;;;;;4977638;28;20090;-68
2022/02/13 00:50:46;;;;;;;8.05;5.82;;;0.70;68.10;;;;;;4977206;28;20117;-67
2022/02/13 00:53:12;;;;;;;8.32;5.75;;;0.70;68.20;;;;;;4976494;28;20085;-67
2022/02/13 00:55:38;;;;;;;10.15;5.70;;;0.70;68.20;;;;;;4978909;28;20104;-67
2022/02/13 00:58:03;;;;;;;10.50;5.82;;;0.70;68.00;;;;;;4977430;28;20023;-67
2022/02/13 01:00:29;;;;;;;7.80;5.55;;;0.70;68.20;;;;;;4976770;28;20561;-67
2022/02/13 01:02:54;;;;;;;10.60;6.00;;;0.70;68.20;;;;;;4976677;28;20053;-67
2022/02/13 01:05:20;;;;;;;10.18;6.43;;;0.70;68.10;;;;;;4975536;28;20042;-67
2022/02/13 01:07:46;;;;;;;8.35;5.80;;;0.70;68.10;;;;;;4974687;28;20042;-68
2022/02/13 01:10:12;;;;;;;9.82;6.30;;;0.70;68.00;;;;;;4974620;28;20030;-68
2022/02/13 01:12:38;;;;;;;8.60;5.88;;;0.70;68.00;;;;;;4975772;28;20030;-67
2022/02/13 01:15:04;;;;;;;8.55;6.10;;;0.60;68.00;;;;;;4977217;28;20046;-68
2022/02/13 01:17:29;;;;;;;8.35;5.85;;;0.60;68.00;;;;;;4978476;28;20177;-68
2022/02/13 01:19:55;;;;;;;10.85;6.32;;;0.60;68.00;;;;;;4991269;28;20160;-68
2022/02/13 01:22:20;;;;;;;11.00;5.97;;;0.60;68.30;;;;;;4977898;28;20545;-67
2022/02/13 01:24:46;;;;;;;9.00;6.10;;;0.60;68.30;;;;;;4975621;28;20513;-67
2022/02/13 01:27:12;;;;;;;10.10;6.50;;;0.50;68.30;;;;;;4978043;28;21028;-68
2022/02/13 01:29:38;;;;;;;9.07;6.28;;;0.50;68.30;;;;;;4976474;28;20520;-67
2022/02/13 01:32:04;;;;;;;7.70;5.50;;;0.50;68.40;;;;;;4976955;28;20042;-67
2022/02/13 01:34:29;;;;;;;11.57;5.85;;;0.50;68.40;;;;;;4975970;28;20122;-67
2022/02/13 01:36:55;;;;;;;10.73;6.22;;;0.50;68.40;;;;;;4978035;28;20062;-68
2022/02/13 01:39:21;;;;;;;6.57;5.25;;;0.40;68.30;;;;;;4975075;28;20751;-68
2022/02/13 01:41:49;;;;;;;15.60;8.68;;;0.40;68.40;;;;;;4977350;28;20038;-67
2022/02/13 01:44:24;;;;;;;8.40;6.25;;;0.40;68.40;;;;;;4976334;28;20046;-68
2022/02/13 01:46:50;;;;;;;11.02;6.63;;;0.30;68.70;;;;;;4987724;28;20125;-67
2022/02/13 01:49:16;;;;;;;10.98;6.78;;;0.30;68.60;;;;;;4977279;28;20121;-67
2022/02/13 01:51:42;;;;;;;10.10;6.60;;;0.30;68.60;;;;;;4976731;28;20502;-67
2022/02/13 01:54:09;;;;;;;11.45;7.38;;;0.30;68.70;;;;;;4974944;28;20034;-68
2022/02/13 01:56:35;;;;;;;13.00;7.95;;;0.30;68.90;;;;;;4975737;28;20062;-68
2022/02/13 01:59:01;;;;;;;11.23;6.90;;;0.30;69.00;;;;;;4976259;28;20100;-68
2022/02/13 02:01:27;;;;;;;11.02;6.00;;;0.30;69.10;;;;;;4980655;28;20508;-67
2022/02/13 02:03:52;;;;;;;8.65;5.97;;;0.20;69.30;;;;;;4975214;28;20069;-67
2022/02/13 02:06:18;;;;;;;8.63;5.60;;;0.20;69.10;;;;;;4978440;28;20111;-67
2022/02/13 02:08:44;;;;;;;8.68;5.80;;;0.20;69.30;;;;;;4975057;28;20023;-67
2022/02/13 02:11:10;;;;;;;9.68;6.57;;;0.20;69.30;;;;;;4977414;28;20045;-67
2022/02/13 02:13:35;;;;;;;21.15;13.20;;;0.30;69.40;;;;;;4979911;28;20534;-67
2022/02/13 02:16:01;;;;;;;21.42;13.82;;;0.30;69.40;;;;;;4978292;28;20501;-67
2022/02/13 02:18:27;;;;;;;12.95;7.70;;;0.30;69.30;;;;;;4973886;28;20040;-68
2022/02/13 02:20:54;;;;;;;10.30;6.82;;;0.30;69.20;;;;;;4975827;28;20620;-67
2022/02/13 02:23:20;;;;;;;10.50;6.20;;;0.30;69.20;;;;;;4974779;28;20104;-67
2022/02/13 02:25:46;;;;;;;8.23;5.82;;;0.30;69.20;;;;;;4976031;28;21595;-67
2022/02/13 02:28:11;;;;;;;9.48;6.25;;;0.20;69.10;;;;;;4975771;28;20031;-67
2022/02/13 02:30:38;;;;;;;8.65;5.50;;;0.20;69.00;;;;;;4989361;28;20505;-67
2022/02/13 02:33:03;;;;;;;10.23;5.57;;;0.20;69.10;;;;;;4977769;28;20039;-67
2022/02/13 02:35:30;;;;;;;8.80;5.55;;;0.20;69.00;;;;;;4975911;28;20515;-68
2022/02/13 02:37:56;;;;;;;8.20;5.63;;;0.20;69.00;;;;;;4978669;28;20035;-68
2022/02/13 02:40:21;;;;;;;8.57;5.38;;;0.20;69.10;;;;;;4977914;28;20038;-68
2022/02/13 02:42:47;;;;;;;10.35;5.88;;;0.10;69.10;;;;;;4976213;28;20031;-67
2022/02/13 02:45:14;;;;;;;9.82;5.60;;;0.20;69.10;;;;;;4978787;28;20578;-67
2022/02/13 02:47:43;;;;;;;6.97;5.18;;;0.20;69.10;;;;;;4975602;28;20038;-68
2022/02/13 02:50:12;;;;;;;8.73;4.93;;;0.20;69.10;;;;;;4974988;28;20034;-67
2022/02/13 02:52:38;;;;;;;9.50;5.32;;;0.20;69.10;;;;;;4987949;28;20042;-68
2022/02/13 02:55:04;;;;;;;7.75;5.10;;;0.20;69.10;;;;;;4976418;28;20039;-68
2022/02/13 02:57:30;;;;;;;7.63;5.28;;;0.20;69.00;;;;;;4975617;28;20049;-68
2022/02/13 02:59:55;;;;;;;8.30;5.30;;;0.20;68.90;;;;;;4975840;28;20030;-67
2022/02/13 03:02:21;;;;;;;7.63;4.80;;;0.20;68.90;;;;;;4976647;28;20609;-67
2022/02/13 03:04:46;;;;;;;8.57;4.75;;;0.20;68.90;;;;;;4975375;28;20049;-67
2022/02/13 03:07:12;;;;;;;8.68;4.65;;;0.20;68.90;;;;;;4977332;28;20053;-67
2022/02/13 03:09:38;;;;;;;6.75;4.60;;;0.20;69.00;;;;;;4976097;28;20038;-68
2022/02/13 03:12:04;;;;;;;7.22;4.47;;;0.20;68.90;;;;;;4976912;28;20425;-67
2022/02/13 03:14:30;;;;;;;5.93;4.35;;;0.20;68.90;;;;;;4974086;28;20513;-67
2022/02/13 03:16:55;;;;;;;7.68;4.28;;;0.20;68.90;;;;;;4977584;28;20030;-68
2022/02/13 03:19:21;;;;;;;6.22;4.50;;;0.20;68.90;;;;;;4974618;28;20035;-67
2022/02/13 03:21:46;;;;;;;5.65;4.32;;;0.20;69.00;;;;;;4993103;28;20030;-67
2022/02/13 03:24:12;;;;;;;6.18;4.28;;;0.20;69.10;;;;;;4978187;28;20524;-67
2022/02/13 03:26:37;;;;;;;8.95;5.30;;;0.20;69.20;;;;;;4979540;28;20129;-68
2022/02/13 03:29:03;;;;;;;8.63;5.38;;;0.20;69.10;;;;;;4975598;28;20050;-68
2022/02/13 03:31:29;;;;;;;8.77;5.45;;;0.20;68.90;;;;;;4977574;28;20046;-67
2022/02/13 03:33:55;;;;;;;7.32;5.25;;;0.20;68.90;;;;;;4979550;28;20532;-67
2022/02/13 03:36:21;;;;;;;7.88;5.18;;;0.10;68.80;;;;;;4980050;28;20038;-67
2022/02/13 03:38:46;;;;;;;9.05;5.38;;;0.10;68.90;;;;;;4980738;28;20035;-67
2022/02/13 03:41:12;;;;;;;7.45;5.07;;;0.10;68.90;;;;;;4977291;28;20538;-67
2022/02/13 03:43:38;;;;;;;6.60;4.47;;;0.10;68.90;;;;;;4978832;28;20045;-68
2022/02/13 03:46:03;;;;;;;5.95;4.35;;;0.10;68.80;;;;;;4979952;28;20061;-68
2022/02/13 03:48:29;;;;;;;5.53;3.65;;;0.10;68.90;;;;;;4976720;28;20545;-67
2022/02/13 03:50:55;;;;;;;5.55;4.00;;;0.00;68.90;;;;;;4980768;28;20059;-67
2022/02/13 03:53:20;;;;;;;7.65;4.70;;;0.00;69.00;;;;;;4980067;28;20402;-68
2022/02/13 03:55:46;;;;;;;8.93;5.90;;;0.00;69.00;;;;;;4978446;28;20039;-67
2022/02/13 03:58:11;;;;;;;8.65;5.57;;;0.00;69.00;;;;;;4980216;28;20460;-67
2022/02/13 04:00:37;;;;;;;10.48;6.25;;;-0.10;68.90;;;;;;4977384;28;20031;-68
2022/02/13 04:03:03;;;;;;;8.68;6.00;;;-0.10;69.00;;;;;;4976674;28;20031;-67
2022/02/13 04:05:28;;;;;;;9.80;6.20;;;-0.10;69.10;;;;;;4976960;28;20039;-66
2022/02/13 04:07:55;;;;;;;8.38;6.00;;;-0.20;69.10;;;;;;4978540;28;20842;-67
2022/02/13 04:10:21;;;;;;;9.40;5.65;;;-0.20;69.10;;;;;;4979639;28;20066;-67
2022/02/13 04:12:46;;;;;;;8.55;5.60;;;-0.30;69.20;;;;;;4975826;28;20116;-67
2022/02/13 04:15:12;;;;;;;9.05;5.57;;;-0.30;69.40;;;;;;4978395;28;20720;-67
2022/02/13 04:17:38;;;;;;;7.60;4.53;;;-0.30;69.60;;;;;;4978221;28;20125;-67
2022/02/13 04:20:05;;;;;;;6.45;4.55;;;-0.30;69.50;;;;;;4976676;28;20042;-68
2022/02/13 04:22:31;;;;;;;6.75;4.55;;;-0.30;69.70;;;;;;4977471;28;20062;-67
2022/02/13 04:24:57;;;;;;;7.43;4.10;;;-0.40;69.80;;;;;;4978301;28;20112;-67
2022/02/13 04:27:23;;;;;;;7.88;4.80;;;-0.30;70.00;;;;;;4978542;28;20265;-68
2022/02/13 04:29:49;;;;;;;13.80;6.38;;;-0.40;70.10;;;;;;4976806;28;21616;-67
2022/02/13 04:32:15;;;;;;;9.45;6.40;;;-0.30;70.10;;;;;;4977484;28;20508;-67
2022/02/13 04:34:41;;;;;;;13.00;7.43;;;-0.30;70.00;;;;;;4977221;28;20066;-67
2022/02/13 04:37:06;;;;;;;11.55;7.18;;;-0.30;70.00;;;;;;4978284;28;20065;-67
2022/02/13 04:39:32;;;;;;;11.02;6.00;;;-0.30;69.80;;;;;;4977436;28;20059;-67
2022/02/13 04:41:58;;;;;;;9.32;6.10;;;-0.30;69.80;;;;;;4979040;28;20443;-67
2022/02/13 04:44:24;;;;;;;8.93;5.60;;;-0.40;69.80;;;;;;4978458;28;20031;-69
2022/02/13 04:46:49;;;;;;;9.88;5.88;;;-0.30;69.90;;;;;;4978500;28;20064;-68
2022/02/13 04:49:15;;;;;;;10.45;5.05;;;-0.30;70.00;;;;;;4978503;28;20034;-66
2022/02/13 04:51:40;;;;;;;13.98;7.78;;;-0.30;69.90;;;;;;4976745;28;20034;-67
2022/02/13 04:54:06;;;;;;;13.38;7.35;;;-0.30;69.80;;;;;;4978353;28;20501;-67
2022/02/13 04:56:32;;;;;;;11.40;6.25;;;-0.30;69.80;;;;;;4976822;28;20042;-67
2022/02/13 04:58:57;;;;;;;9.35;5.90;;;-0.20;70.00;;;;;;4977425;28;20461;-66
2022/02/13 05:01:23;;;;;;;9.25;5.32;;;-0.30;69.80;;;;;;4978037;28;20058;-67
2022/02/13 05:03:48;;;;;;;8.13;5.07;;;-0.20;69.80;;;;;;4977857;28;20460;-69
2022/02/13 05:06:14;;;;;;;9.52;5.43;;;-0.20;69.60;;;;;;4978190;28;20034;-67
2022/02/13 05:08:39;;;;;;;8.55;5.53;;;-0.30;69.60;;;;;;4975899;28;20027;-66
2022/02/13 05:11:05;;;;;;;9.32;5.75;;;-0.30;69.50;;;;;;4977091;28;20033;-66
2022/02/13 05:13:31;;;;;;;11.98;8.00;;;-0.30;69.40;;;;;;4979325;28;20038;-67
2022/02/13 05:15:56;;;;;;;13.50;7.60;;;-0.40;69.50;;;;;;4977175;28;20469;-67
2022/02/13 05:18:22;;;;;;;14.98;7.22;;;-0.40;69.60;;;;;;4976833;28;20039;-67
2022/02/13 05:20:47;;;;;;;12.25;6.95;;;-0.40;69.80;;;;;;4975175;28;20042;-67
2022/02/13 05:23:13;;;;;;;15.70;9.40;;;-0.40;70.00;;;;;;4977004;28;20038;-68
2022/02/13 05:25:39;;;;;;;19.45;12.38;;;-0.40;70.80;;;;;;4977435;28;20035;-67
2022/02/13 05:28:04;;;;;;;14.30;7.90;;;-0.40;70.00;;;;;;4976971;28;20295;-68
2022/02/13 05:30:30;;;;;;;9.93;5.50;;;-0.50;70.00;;;;;;4976741;28;20371;-65
2022/02/13 05:32:56;;;;;;;10.45;5.85;;;-0.50;70.00;;;;;;4978120;28;20078;-67
2022/02/13 05:35:21;;;;;;;9.00;5.63;;;-0.50;70.20;;;;;;4976864;28;20065;-68
2022/02/13 05:37:50;;;;;;;9.75;5.78;;;-0.50;70.30;;;;;;4974174;28;20089;-67
2022/02/13 05:40:16;;;;;;;8.00;5.55;;;-0.50;70.50;;;;;;4975336;28;20038;-67
2022/02/13 05:42:41;;;;;;;9.32;5.65;;;-0.50;70.50;;;;;;4977354;28;20429;-67
2022/02/13 05:45:07;;;;;;;8.45;5.43;;;-0.50;70.60;;;;;;4975360;28;20045;-68
2022/02/13 05:47:35;;;;;;;8.77;5.38;;;-0.50;70.70;;;;;;4976403;28;20036;-67
2022/02/13 05:50:00;;;;;;;9.18;5.80;;;-0.60;70.70;;;;;;4974481;28;20049;-67
2022/02/13 05:52:26;;;;;;;8.73;5.20;;;-0.50;70.80;;;;;;4975958;28;20429;-68
2022/02/13 05:54:52;;;;;;;10.70;7.03;;;-0.50;70.90;;;;;;4975954;28;20483;-68
2022/02/13 05:57:17;;;;;;;12.10;6.30;;;-0.60;70.80;;;;;;4981626;28;20054;-67
2022/02/13 05:59:43;;;;;;;11.23;6.47;;;-0.60;70.80;;;;;;4975938;28;20039;-67
2022/02/13 06:02:08;;;;;;;10.50;5.82;;;-0.50;70.80;;;;;;4978607;28;20039;-67
2022/02/13 06:04:34;;;;;;;8.93;5.07;;;-0.50;70.80;;;;;;4975578;28;20065;-67
2022/02/13 06:07:00;;;;;;;7.22;4.63;;;-0.60;70.70;;;;;;4976264;28;20035;-67
2022/02/13 06:09:25;;;;;;;12.32;6.60;;;-0.60;70.80;;;;;;4976232;28;20034;-67
2022/02/13 06:11:51;;;;;;;9.93;6.57;;;-0.60;70.90;;;;;;4974804;28;20070;-67
2022/02/13 06:14:17;;;;;;;10.55;6.50;;;-0.60;70.90;;;;;;4976482;28;20113;-68
2022/02/13 06:16:43;;;;;;;9.98;6.47;;;-0.60;70.70;;;;;;4975279;28;20628;-67
2022/02/13 06:19:09;;;;;;;10.50;6.30;;;-0.60;70.70;;;;;;4977234;28;20041;-67
2022/02/13 06:21:35;;;;;;;10.77;6.78;;;-0.60;70.80;;;;;;4975363;28;20042;-67
2022/02/13 06:24:01;;;;;;;9.30;6.53;;;-0.60;70.70;;;;;;4978412;28;20042;-67
2022/02/13 06:26:27;;;;;;;12.95;6.05;;;-0.60;70.70;;;;;;4974596;28;20039;-67
2022/02/13 06:28:52;;;;;;;8.38;5.88;;;-0.70;70.80;;;;;;4977011;28;20037;-67
2022/02/13 06:31:18;;;;;;;12.38;5.93;;;-0.70;71.10;;;;;;4978925;28;20034;-67
2022/02/13 06:33:44;;;;;;;9.50;5.63;;;-0.70;71.30;;;;;;4974139;28;20085;-67
2022/02/13 06:36:10;;;;;;;10.20;5.70;;;-0.70;71.70;;;;;;4975066;28;20034;-67
2022/02/13 06:38:36;;;;;;;7.43;4.97;;;-0.70;71.80;;;;;;4973552;28;20526;-67
2022/02/13 06:41:02;;;;;;;8.32;5.28;;;-0.70;71.70;;;;;;4974764;28;20039;-67
2022/02/13 06:43:28;;;;;;;9.38;6.20;;;-0.70;71.70;;;;;;4975363;28;20125;-67
2022/02/13 06:45:53;;;;;;;9.40;6.30;;;-0.70;71.60;;;;;;4974389;28;20037;-68
2022/02/13 06:48:19;;;;;;;9.95;6.47;;;-0.60;71.60;;;;;;4974414;28;20130;-66
2022/02/13 06:50:44;;;;;;;12.23;6.63;;;-0.60;71.50;;;;;;4973529;28;20038;-68
2022/02/13 06:53:10;;;;;;;11.02;5.93;;;-0.60;71.30;;;;;;4975690;28;20366;-67
2022/02/13 06:55:36;;;;;;;9.80;6.20;;;-0.60;71.20;;;;;;4976342;28;20066;-67
2022/02/13 06:58:02;;;;;;;10.75;5.90;;;-0.50;71.20;;;;;;4980484;28;20509;-67
2022/02/13 07:00:27;;;;;;;11.32;5.50;;;-0.50;71.20;;;;;;4977286;28;20044;-67
2022/02/13 07:02:53;;;;;;;8.88;5.70;;;-0.50;71.30;;;;;;4979588;28;20035;-67
2022/02/13 07:05:23;;;;;;;11.80;6.20;;;-0.50;71.30;;;;;;4980964;28;20043;-67
2022/02/13 07:07:50;;;;;;;8.27;5.22;;;-0.50;71.30;;;;;;4980766;28;20035;-68
2022/02/13 07:10:16;;;;;;;10.73;6.25;;;-0.50;71.40;;;;;;4980466;28;20410;-67
2022/02/13 07:12:41;;;;;;;10.32;6.75;;;-0.50;71.70;;;;;;4980685;28;20041;-67
2022/02/13 07:15:08;;;;;;;11.63;7.13;;;-0.40;71.70;;;;;;4979705;28;20038;-67
2022/02/13 07:17:34;;;;;;;11.18;7.85;;;-0.40;71.70;;;;;;4978634;28;20104;-67
2022/02/13 07:20:00;;;;;;;13.25;8.45;;;-0.40;71.80;;;;;;4977719;28;20035;-68
2022/02/13 07:22:26;;;;;;;12.98;8.85;;;-0.30;72.00;;;;;;4992340;28;20464;-67
2022/02/13 07:24:52;;;;;;;20.02;10.52;;;-0.30;72.10;;;;;;4978617;28;20775;-67
2022/02/13 07:27:17;;;;;;;15.90;10.10;;;-0.30;72.30;;;;;;4982048;28;20027;-67
2022/02/13 07:29:43;;;;;;;13.82;9.85;;;-0.30;72.60;;;;;;4980284;28;20410;-66
2022/02/13 07:32:09;;;;;;;12.88;9.07;;;-0.20;72.60;;;;;;4982935;28;20176;-68
2022/02/13 07:34:35;;;;;;;15.38;9.82;;;-0.20;72.40;;;;;;4966521;28;20030;-67
2022/02/13 07:37:04;;;;;;;15.75;9.43;;;-0.10;72.70;;;;;;4972634;28;20034;-68
2022/02/13 07:39:35;;;;;;;14.68;9.18;;;-0.10;72.50;;;;;;4968848;28;20027;-67
2022/02/13 07:42:00;;;;;;;15.13;8.98;;;0.00;72.60;;;;;;4971975;28;20049;-67
2022/02/13 07:44:27;;;;;;;12.57;7.93;;;0.00;72.60;;;;;;4976017;28;20046;-67
2022/02/13 07:46:53;;;;;;;15.35;8.98;;;0.00;72.60;;;;;;4968597;28;20046;-67
2022/02/13 07:49:20;;;;;;;18.83;9.23;;;0.10;72.60;;;;;;4971285;28;20031;-67
2022/02/13 07:51:46;;;;;;;16.40;9.98;;;0.10;72.70;;;;;;4968002;28;20045;-67
2022/02/13 07:54:12;;;;;;;19.33;11.07;;;0.20;72.70;;;;;;4972344;28;20038;-68
2022/02/13 07:56:38;;;;;;;34.30;17.13;;;0.20;72.80;;;;;;4970313;28;20038;-67
2022/02/13 07:59:04;;;;;;;21.23;12.05;;;0.20;73.10;;;;;;4973170;28;20047;-67
2022/02/13 08:01:29;;;;;;;16.95;10.85;;;0.30;73.20;;;;;;4973659;28;20045;-66
2022/02/13 08:03:55;;;;;;;15.18;9.63;;;0.30;73.50;;;;;;4970115;28;20460;-67
2022/02/13 08:06:21;;;;;;;16.52;10.45;;;0.40;73.80;;;;;;4972465;28;20042;-68
2022/02/13 08:08:48;;;;;;;36.22;18.00;;;0.50;73.70;;;;;;4972021;28;20034;-67
2022/02/13 08:11:16;;;;;;;17.80;10.50;;;0.50;73.40;;;;;;4974651;28;20070;-68
2022/02/13 08:13:42;;;;;;;16.90;10.23;;;0.60;73.60;;;;;;4969382;28;20134;-67
2022/02/13 08:16:08;;;;;;;32.33;16.75;;;0.70;73.80;;;;;;4975000;28;20102;-67
2022/02/13 08:18:34;;;;;;;15.80;9.88;;;0.80;73.80;;;;;;4983554;28;20035;-68
2022/02/13 08:21:03;;;;;;;16.33;9.60;;;0.80;73.80;;;;;;4974564;28;20117;-68
2022/02/13 08:23:28;;;;;;;12.57;8.05;;;0.90;73.70;;;;;;4973365;28;20045;-67
2022/02/13 08:25:55;;;;;;;18.35;10.20;;;0.90;73.70;;;;;;4973127;28;20035;-67
2022/02/13 08:28:20;;;;;;;14.10;9.10;;;1.00;73.60;;;;;;4981898;28;20047;-67
2022/02/13 08:30:47;;;;;;;15.05;8.45;;;1.10;73.50;;;;;;4979694;28;20041;-66
2022/02/13 08:33:13;;;;;;;12.25;8.10;;;1.20;73.40;;;;;;4977378;28;20043;-67
2022/02/13 08:35:39;;;;;;;14.15;8.50;;;1.30;73.50;;;;;;4977432;28;20026;-67
2022/02/13 08:38:05;;;;;;;13.35;8.25;;;1.40;73.40;;;;;;4977208;28;20123;-67
2022/02/13 08:40:32;;;;;;;14.02;8.77;;;1.50;73.40;;;;;;4978687;28;20026;-67
2022/02/13 08:42:59;;;;;;;13.05;8.07;;;1.70;73.20;;;;;;4978253;28;20037;-66
2022/02/13 08:45:36;;;;;;;11.63;7.78;;;1.80;73.10;;;;;;4979305;28;20073;-67
2022/02/13 08:48:01;;;;;;;10.80;7.47;;;1.90;73.20;;;;;;4992997;28;20568;-67
2022/02/13 08:50:27;;;;;;;12.07;7.53;;;2.00;72.90;;;;;;4978882;28;20038;-68
2022/02/13 08:52:53;;;;;;;11.60;7.38;;;2.10;72.70;;;;;;4977392;28;20050;-67
2022/02/13 08:55:19;;;;;;;9.75;6.88;;;2.20;72.40;;;;;;4977857;28;20081;-68
2022/02/13 08:57:46;;;;;;;11.25;7.30;;;2.30;72.00;;;;;;4979207;28;20115;-67
2022/02/13 09:00:14;;;;;;;9.68;6.80;;;2.50;71.90;;;;;;4978250;28;20038;-67
2022/02/13 09:02:40;;;;;;;10.35;6.15;;;2.50;71.50;;;;;;4980022;28;20437;-67
2022/02/13 09:05:08;;;;;;;8.07;6.20;;;2.60;71.30;;;;;;4980800;28;20042;-67
2022/02/13 09:07:35;;;;;;;9.52;6.05;;;2.70;71.00;;;;;;4977892;28;20042;-67
2022/02/13 09:10:02;;;;;;;11.75;7.30;;;2.80;70.70;;;;;;4974453;28;20546;-68
2022/02/13 09:12:29;;;;;;;15.85;9.18;;;2.90;70.60;;;;;;4981532;28;20508;-67
2022/02/13 09:14:55;;;;;;;12.68;7.47;;;3.00;70.70;;;;;;4977625;28;20394;-67
2022/02/13 09:17:22;;;;;;;9.60;5.60;;;3.10;71.30;;;;;;4976321;28;20038;-68
2022/02/13 09:19:47;;;;;;;10.40;5.47;;;3.20;70.10;;;;;;4977055;28;20042;-68
2022/02/13 09:22:13;;;;;;;6.30;4.38;;;3.30;69.70;;;;;;4974671;28;20045;-67
2022/02/13 09:24:39;;;;;;;8.85;5.20;;;3.40;69.40;;;;;;4976055;28;20089;-67
2022/02/13 09:27:04;;;;;;;9.07;5.07;;;3.50;69.00;;;;;;4976514;28;20050;-66
2022/02/13 09:29:30;;;;;;;11.30;6.60;;;3.70;68.80;;;;;;4990983;28;20122;-68
2022/02/13 09:31:56;;;;;;;11.32;6.18;;;3.80;68.70;;;;;;4989012;28;20050;-68
2022/02/13 09:34:27;;;;;;;9.02;5.30;;;3.90;68.30;;;;;;4974358;28;20039;-67
2022/02/13 09:36:53;;;;;;;8.32;4.80;;;4.00;68.00;;;;;;4990236;28;20042;-67
2022/02/13 09:39:18;;;;;;;7.75;5.80;;;4.20;67.60;;;;;;4975199;28;20031;-68
2022/02/13 09:41:44;;;;;;;10.45;6.45;;;4.30;67.70;;;;;;4975673;28;20581;-68
2022/02/13 09:44:11;;;;;;;10.02;6.70;;;4.50;68.90;;;;;;4975678;28;20505;-68
2022/02/13 09:46:37;;;;;;;10.40;5.90;;;4.60;69.20;;;;;;4972367;28;20038;-67
2022/02/13 09:49:05;;;;;;;9.70;6.00;;;4.70;69.00;;;;;;4976957;28;20060;-67
2022/02/13 09:51:32;;;;;;;9.20;5.95;;;4.80;68.70;;;;;;4973999;28;20032;-67
2022/02/13 09:53:57;;;;;;;7.97;5.85;;;4.90;68.30;;;;;;4974981;28;20031;-67
2022/02/13 09:56:23;;;;;;;7.75;5.97;;;5.00;68.20;;;;;;4972906;28;20498;-68
2022/02/13 09:58:49;;;;;;;8.32;5.75;;;5.10;68.00;;;;;;4977611;28;20530;-67
2022/02/13 10:01:15;;;;;;;10.23;5.40;;;5.10;67.70;;;;;;4975024;28;20047;-67
2022/02/13 10:03:45;;;;;;;7.72;5.47;;;5.20;67.50;;;;;;4974601;28;20121;-67
2022/02/13 10:06:11;;;;;;;6.18;5.03;;;5.30;67.10;;;;;;4977462;28;20101;-67
2022/02/13 10:08:41;;;;;;;8.18;5.43;;;5.40;67.00;;;;;;4975476;28;20493;-68
2022/02/13 10:11:15;;;;;;;6.70;5.13;;;5.40;66.50;;;;;;4979207;28;20045;-68
2022/02/13 10:13:47;;;;;;;6.60;5.35;;;5.50;65.90;;;;;;4978018;28;20027;-67
2022/02/13 10:16:13;;;;;;;6.93;5.15;;;5.60;65.40;;;;;;4977796;28;20546;-68
2022/02/13 10:19:12;;;;;;;8.00;4.97;;;5.70;65.10;;;;;;4977388;28;20034;-67
2022/02/13 10:21:51;;;;;;;7.40;4.93;;;5.80;63.40;;;;;;4966392;28;20238;-67
2022/02/13 10:24:31;;;;;;;8.75;5.10;;;5.90;63.90;;;;;;4975579;28;20039;-68
2022/02/13 10:26:56;;;;;;;6.72;5.20;;;5.90;63.70;;;;;;4974964;28;20038;-67
2022/02/13 10:29:32;;;;;;;7.47;5.00;;;6.00;64.20;;;;;;4978175;28;20031;-67
2022/02/13 10:32:25;;;;;;;7.80;5.35;;;6.00;64.40;;;;;;4982254;28;20030;-68
2022/02/13 10:35:06;;;;;;;5.93;4.57;;;6.10;63.90;;;;;;4980104;28;20034;-67
2022/02/13 10:37:54;;;;;;;7.88;5.32;;;6.20;63.70;;;;;;4987064;28;20027;-68
2022/02/13 10:40:25;;;;;;;5.07;4.57;;;6.40;63.30;;;;;;4983032;28;20140;-67
2022/02/13 10:43:03;;;;;;;7.35;5.28;;;6.40;64.00;;;;;;4982993;28;20040;-67
2022/02/13 10:45:31;;;;;;;6.75;5.03;;;6.50;63.80;;;;;;4980183;28;20420;-67
2022/02/13 10:47:59;;;;;;;6.63;4.88;;;6.60;64.00;;;;;;4982750;28;21218;-67
2022/02/13 10:50:30;;;;;;;7.53;6.00;;;6.70;64.00;;;;;;4980639;28;20375;-69
2022/02/13 10:52:59;;;;;;;9.43;5.55;;;6.70;63.80;;;;;;4979410;28;20027;-67
2022/02/13 10:55:25;;;;;;;9.23;4.50;;;6.80;63.80;;;;;;4982696;28;20134;-67
2022/02/13 10:57:51;;;;;;;10.13;4.47;;;6.90;63.40;;;;;;4995334;28;20039;-68
2022/02/13 11:00:18;;;;;;;8.07;5.00;;;7.00;63.10;;;;;;4981383;28;20509;-68
2022/02/13 11:02:48;;;;;;;9.23;5.50;;;7.10;63.10;;;;;;4982578;28;20127;-67
2022/02/13 11:05:14;;;;;;;8.98;4.57;;;7.10;62.40;;;;;;4982027;28;20130;-68
2022/02/13 11:07:49;;;;;;;7.22;4.28;;;7.20;62.70;;;;;;4984043;28;20510;-68
2022/02/13 11:10:20;;;;;;;4.97;3.95;;;7.40;61.90;;;;;;4982006;28;20129;-67
2022/02/13 11:12:50;;;;;;;7.35;4.30;;;7.50;62.50;;;;;;4982584;28;20486;-67
2022/02/13 11:15:20;;;;;;;7.05;3.67;;;7.60;62.50;;;;;;4983359;28;20035;-67
2022/02/13 11:17:48;;;;;;;5.85;3.80;;;7.70;61.90;;;;;;4986157;28;20061;-68
2022/02/13 11:20:16;;;;;;;6.57;3.80;;;7.90;62.00;;;;;;4983719;28;20034;-67
2022/02/13 11:22:43;;;;;;;5.45;4.00;;;8.00;61.90;;;;;;4984841;28;20131;-67
2022/02/13 11:25:10;;;;;;;6.97;4.38;;;8.20;61.80;;;;;;4983843;28;20038;-67
2022/02/13 11:27:59;;;;;;;8.13;4.18;;;8.40;61.50;;;;;;4984433;28;20497;-67
2022/02/13 11:30:43;;;;;;;8.18;4.10;;;8.60;59.80;;;;;;4983915;28;20050;-68
2022/02/13 11:33:30;;;;;;;6.17;4.00;;;8.70;59.80;;;;;;4984285;28;20041;-67
2022/02/13 11:36:03;;;;;;;9.80;4.05;;;8.90;60.60;;;;;;4977509;28;20042;-68
2022/02/13 11:38:40;;;;;;;8.30;3.65;;;9.00;60.50;;;;;;4984119;28;20091;-66
2022/02/13 11:41:07;;;;;;;8.27;4.35;;;9.10;59.80;;;;;;4984729;28;20034;-68
2022/02/13 11:43:45;;;;;;;7.25;4.57;;;9.30;59.90;;;;;;4980946;28;20052;-67
2022/02/13 11:46:35;;;;;;;7.32;4.30;;;9.40;59.10;;;;;;4981645;28;20031;-67
2022/02/13 11:49:03;;;;;;;7.53;3.90;;;9.60;58.80;;;;;;4981352;28;20046;-67
2022/02/13 11:51:46;;;;;;;8.23;3.95;;;9.60;59.60;;;;;;4980704;28;20093;-67
2022/02/13 11:54:44;;;;;;;10.82;4.38;;;9.70;58.80;;;;;;4979559;28;20133;-67
2022/02/13 11:57:17;;;;;;;8.88;4.13;;;9.90;58.70;;;;;;4975988;28;20146;-67
2022/02/13 11:59:52;;;;;;;6.97;4.25;;;9.90;59.00;;;;;;4990214;28;20077;-68
2022/02/13 12:02:40;;;;;;;7.53;4.57;;;10.00;58.80;;;;;;4980833;28;20182;-68
2022/02/13 12:05:06;;;;;;;8.27;3.67;;;10.10;58.40;;;;;;4981389;28;20045;-67
2022/02/13 12:07:58;;;;;;;7.85;4.53;;;10.20;59.00;;;;;;4979959;28;20037;-67
2022/02/13 12:10:41;;;;;;;8.95;4.38;;;10.20;58.40;;;;;;4980562;28;20047;-67
2022/02/13 12:13:10;;;;;;;8.45;4.55;;;10.30;58.20;;;;;;4983086;28;20134;-67
2022/02/13 12:15:37;;;;;;;7.38;4.65;;;10.40;58.80;;;;;;4979859;28;20375;-68
2022/02/13 12:18:13;;;;;;;6.78;4.45;;;10.40;58.40;;;;;;4980698;28;20033;-67
2022/02/13 12:20:42;;;;;;;7.88;4.20;;;10.50;57.60;;;;;;4980368;28;20512;-68
2022/02/13 12:23:13;;;;;;;7.43;3.85;;;10.60;57.80;;;;;;4981694;28;20030;-68
2022/02/13 12:25:45;;;;;;;7.50;4.15;;;10.70;57.90;;;;;;4980756;28;20548;-68
2022/02/13 12:28:13;;;;;;;9.68;4.20;;;10.70;57.60;;;;;;4979392;28;20043;-66
2022/02/13 12:30:49;;;;;;;8.88;4.60;;;10.80;57.40;;;;;;4979225;28;20027;-68
2022/02/13 12:33:18;;;;;;;24.05;4.15;;;10.90;57.00;;;;;;4980296;28;20038;-68
2022/02/13 12:35:45;;;;;;;9.98;4.65;;;10.90;57.10;;;;;;4980208;28;20038;-68
2022/02/13 12:38:12;;;;;;;8.75;4.78;;;11.00;56.80;;;;;;4980710;28;20038;-68
2022/02/13 12:40:43;;;;;;;5.00;3.80;;;11.00;56.50;;;;;;4978951;28;20030;-68
2022/02/13 12:43:14;;;;;;;7.20;4.32;;;11.10;56.50;;;;;;4980122;28;20569;-68
2022/02/13 12:45:41;;;;;;;6.25;3.35;;;11.10;56.10;;;;;;4979567;28;20041;-68
2022/02/13 12:48:09;;;;;;;5.40;3.78;;;11.20;56.20;;;;;;4979868;28;20039;-68
2022/02/13 12:50:37;;;;;;;8.57;3.72;;;11.20;55.70;;;;;;4977898;28;20066;-67